Rockland, Canada
Current Conditions -  °F | °C
As of 9:00 AM on Friday 19 Dec 2014 (Local Time) from CYND Reporting Station
Few Clouds Few Clouds  
Wind Chill:   Ceiling: Unl
Heat Index: 18°   Visibility: 15mi
Dew Point: 10°   Wind: 7mph
Humidity: 73%   Direction: 320°NW
Pressure: 30.13"   Gusts: NA
Location:  45.53°N, 75.28°W
Report Text: CYND 191400Z 32006KT 300V360 15SM FEW024 M08/M12 A3013 RMK SC2 SLP209
Loading
Personal Weather Stations






























Interactive Weather Map New forecast layout! Learn more

10-Day Weather Forecast

Advertisements
Track Severe Weather on mobile